createdAt,value
2022-10-09T00:02:28.693Z,10.40
2022-10-09T00:05:15.746Z,10.50
2022-10-09T00:08:02.464Z,10.40
2022-10-09T00:10:48.860Z,10.30
2022-10-09T00:13:37.272Z,10.10
2022-10-09T00:16:25.217Z,10.20
2022-10-09T00:19:12.011Z,10.10
2022-10-09T00:21:58.415Z,10.00
2022-10-09T00:24:45.020Z,9.80
2022-10-09T00:27:31.250Z,9.70
2022-10-09T00:30:19.082Z,9.60
2022-10-09T00:33:05.775Z,9.60
2022-10-09T00:35:52.253Z,9.70
2022-10-09T00:38:38.756Z,9.90
2022-10-09T00:41:27.676Z,10.00
2022-10-09T00:44:50.462Z,10.00
2022-10-09T00:47:42.400Z,10.20
2022-10-09T00:50:36.524Z,10.20
2022-10-09T00:53:25.648Z,10.10
2022-10-09T00:56:12.044Z,10.10
2022-10-09T00:58:59.461Z,9.90
2022-10-09T01:01:45.963Z,9.90
2022-10-09T01:04:34.348Z,10.10
2022-10-09T01:07:35.488Z,10.10
2022-10-09T01:10:31.204Z,10.20
2022-10-09T01:13:24.591Z,10.20
2022-10-09T01:16:23.665Z,10.00
2022-10-09T01:19:23.543Z,9.80
2022-10-09T01:22:22.917Z,9.70
2022-10-09T01:25:12.319Z,9.70
2022-10-09T01:28:02.121Z,9.80
2022-10-09T01:30:49.774Z,9.90
2022-10-09T01:33:37.849Z,10.10
2022-10-09T01:36:25.485Z,10.10
2022-10-09T01:39:16.233Z,10.10
2022-10-09T01:42:03.501Z,10.10
2022-10-09T01:44:51.133Z,10.00
2022-10-09T01:47:38.844Z,9.90
2022-10-09T01:50:29.508Z,9.90
2022-10-09T01:53:20.222Z,9.80
2022-10-09T01:56:12.599Z,9.70
2022-10-09T01:59:02.008Z,9.80
2022-10-09T02:01:51.616Z,9.70
2022-10-09T02:04:41.396Z,9.80
2022-10-09T02:07:28.148Z,9.80
2022-10-09T02:10:16.699Z,9.90
2022-10-09T02:13:03.355Z,9.80
2022-10-09T02:15:54.514Z,9.70
2022-10-09T02:18:46.138Z,9.70
2022-10-09T02:21:39.507Z,9.60
2022-10-09T02:24:26.169Z,9.60
2022-10-09T02:27:14.413Z,9.60
2022-10-09T02:30:01.927Z,9.70
2022-10-09T02:32:53.039Z,9.70
2022-10-09T02:35:41.475Z,9.60
2022-10-09T02:38:28.012Z,9.60
2022-10-09T02:41:14.468Z,9.50
2022-10-09T02:44:01.300Z,9.40
2022-10-09T02:46:47.796Z,9.30
2022-10-09T02:49:34.756Z,9.20
2022-10-09T02:52:22.431Z,9.30
2022-10-09T02:55:09.467Z,9.30
2022-10-09T02:57:56.087Z,9.40
2022-10-09T03:00:42.521Z,9.50
2022-10-09T03:03:29.249Z,9.40
2022-10-09T03:06:17.635Z,9.30
2022-10-09T03:09:05.487Z,9.40
2022-10-09T03:11:52.070Z,9.30
2022-10-09T03:14:38.484Z,9.20
2022-10-09T03:17:25.100Z,9.20
2022-10-09T03:20:11.334Z,9.10
2022-10-09T03:22:57.849Z,9.20
2022-10-09T03:25:45.684Z,9.20
2022-10-09T03:28:32.835Z,9.10
2022-10-09T03:31:47.016Z,9.20
2022-10-09T03:34:28.499Z,9.20
2022-10-09T03:37:14.961Z,9.20
2022-10-09T03:40:01.396Z,9.10
2022-10-09T03:42:49.297Z,9.10
2022-10-09T03:45:36.620Z,9.10
2022-10-09T03:48:23.739Z,9.20
2022-10-09T03:51:10.292Z,9.20
2022-10-09T03:53:56.572Z,9.10
2022-10-09T03:56:42.894Z,9.10
2022-10-09T03:59:30.865Z,9.00
2022-10-09T04:02:17.420Z,9.00
2022-10-09T04:05:04.387Z,8.90
2022-10-09T04:07:50.989Z,9.00
2022-10-09T04:10:37.560Z,8.90
2022-10-09T04:13:23.892Z,8.80
2022-10-09T04:16:12.755Z,8.90
2022-10-09T04:18:59.428Z,8.80
2022-10-09T04:21:46.024Z,8.80
2022-10-09T04:24:32.426Z,8.80
2022-10-09T04:27:19.010Z,8.90
2022-10-09T04:30:06.312Z,8.80
2022-10-09T04:32:53.990Z,8.80
2022-10-09T04:35:43.625Z,8.90
2022-10-09T04:38:32.548Z,8.90
2022-10-09T04:41:19.802Z,8.80
2022-10-09T04:44:06.764Z,8.90
2022-10-09T04:46:53.448Z,8.90
2022-10-09T04:49:41.228Z,8.80
2022-10-09T04:52:27.936Z,8.90
2022-10-09T04:55:14.485Z,8.80
2022-10-09T04:58:00.869Z,8.60
2022-10-09T05:00:48.584Z,8.50
2022-10-09T05:03:35.788Z,8.50
2022-10-09T05:06:24.770Z,8.40
2022-10-09T05:09:11.396Z,8.40
2022-10-09T05:11:57.989Z,8.40
2022-10-09T05:14:44.330Z,8.30
2022-10-09T05:17:30.782Z,8.10
2022-10-09T05:20:17.824Z,8.00
2022-10-09T05:23:05.472Z,7.90
2022-10-09T05:25:55.976Z,7.80
2022-10-09T05:28:43.311Z,7.70
2022-10-09T05:31:31.745Z,7.60
2022-10-09T05:34:18.228Z,7.50
2022-10-09T05:37:04.667Z,7.60
2022-10-09T05:39:52.399Z,7.60
2022-10-09T05:42:38.765Z,7.70
2022-10-09T05:45:25.010Z,7.70
2022-10-09T05:48:11.428Z,7.80
2022-10-09T05:51:10.518Z,7.70
2022-10-09T05:53:58.241Z,7.90
2022-10-09T05:56:46.610Z,7.80
2022-10-09T05:59:32.940Z,7.80
2022-10-09T06:02:19.425Z,7.90
2022-10-09T06:05:07.149Z,8.00
2022-10-09T06:07:53.382Z,8.10
2022-10-09T06:10:39.747Z,8.10
2022-10-09T06:13:28.154Z,8.10
2022-10-09T06:16:17.180Z,8.20
2022-10-09T06:19:04.503Z,8.30
2022-10-09T06:21:51.852Z,8.30
2022-10-09T06:24:38.499Z,8.40
2022-10-09T06:27:24.848Z,8.40
2022-10-09T06:30:13.461Z,8.40
2022-10-09T06:32:59.830Z,8.40
2022-10-09T06:35:46.141Z,8.50
2022-10-09T06:38:34.197Z,8.70
2022-10-09T06:41:23.032Z,8.80
2022-10-09T06:44:16.600Z,8.80
2022-10-09T06:47:04.583Z,9.10
2022-10-09T06:49:51.008Z,9.30
2022-10-09T06:52:37.888Z,9.50
2022-10-09T06:55:28.581Z,9.60
2022-10-09T06:58:15.477Z,10.00
2022-10-09T07:01:10.047Z,10.40
2022-10-09T07:03:59.572Z,11.10
2022-10-09T07:06:47.961Z,11.40
2022-10-09T07:09:34.358Z,11.80
2022-10-09T07:12:20.884Z,12.40
2022-10-09T07:15:08.619Z,13.20
2022-10-09T07:17:54.878Z,13.80
2022-10-09T07:20:42.638Z,14.50
2022-10-09T07:23:29.662Z,14.70
2022-10-09T07:26:18.740Z,15.00
2022-10-09T07:29:06.853Z,15.60
2022-10-09T07:31:53.233Z,15.50
2022-10-09T07:34:39.734Z,16.30
2022-10-09T07:37:27.409Z,16.60
2022-10-09T07:40:13.903Z,16.70
2022-10-09T07:43:00.444Z,16.70
2022-10-09T07:45:46.748Z,17.10
2022-10-09T07:48:35.142Z,16.60
2022-10-09T07:51:24.060Z,16.90
2022-10-09T07:54:12.180Z,16.90
2022-10-09T07:56:58.828Z,17.30
2022-10-09T07:59:45.253Z,17.20
2022-10-09T08:02:31.931Z,17.10
2022-10-09T08:05:18.675Z,17.10
2022-10-09T08:08:05.315Z,16.70
2022-10-09T08:10:53.111Z,16.50
2022-10-09T08:13:39.988Z,16.50
2022-10-09T08:16:27.667Z,16.70
2022-10-09T08:19:14.301Z,17.10
2022-10-09T08:22:03.402Z,17.10
2022-10-09T08:24:50.538Z,17.30
2022-10-09T08:27:38.255Z,17.60
2022-10-09T08:30:24.787Z,17.30
2022-10-09T08:33:11.065Z,17.20
2022-10-09T08:36:07.742Z,17.50
2022-10-09T08:38:55.218Z,17.60
2022-10-09T08:41:47.480Z,16.70
2022-10-09T08:44:40.040Z,16.80
2022-10-09T08:47:31.668Z,17.10
2022-10-09T08:50:22.974Z,17.30
2022-10-09T08:53:20.284Z,17.00
2022-10-09T08:56:11.964Z,17.50
2022-10-09T08:58:58.880Z,17.70
2022-10-09T09:01:52.868Z,17.90
2022-10-09T09:04:54.604Z,17.80
2022-10-09T09:07:49.484Z,17.40
2022-10-09T09:10:42.149Z,17.50
2022-10-09T09:13:46.134Z,17.40
2022-10-09T09:16:39.152Z,17.40
2022-10-09T09:19:41.743Z,17.20
2022-10-09T09:22:29.111Z,17.10
2022-10-09T09:25:22.722Z,17.20
2022-10-09T09:28:17.180Z,17.40
2022-10-09T09:31:09.444Z,17.40
2022-10-09T09:34:02.600Z,17.10
2022-10-09T09:36:55.014Z,17.20
2022-10-09T09:40:34.373Z,17.10
2022-10-09T09:42:49.187Z,17.10
2022-10-09T09:45:36.010Z,16.80
2022-10-09T09:48:33.172Z,16.80
2022-10-09T09:51:28.390Z,16.80
2022-10-09T09:54:21.486Z,17.30
2022-10-09T09:57:17.122Z,17.10
2022-10-09T10:00:11.404Z,17.00
2022-10-09T10:03:10.235Z,17.40
2022-10-09T10:05:57.447Z,17.70
2022-10-09T10:08:47.025Z,17.60
2022-10-09T10:11:35.948Z,18.10
2022-10-09T10:14:22.564Z,18.30
2022-10-09T10:17:29.332Z,17.70
2022-10-09T10:20:17.026Z,17.20
2022-10-09T10:23:03.720Z,17.40
2022-10-09T10:25:53.051Z,17.40
2022-10-09T10:28:49.564Z,17.90
2022-10-09T10:31:44.080Z,17.70
2022-10-09T10:34:36.627Z,18.10
2022-10-09T10:37:32.423Z,18.30
2022-10-09T10:40:23.525Z,18.20
2022-10-09T10:43:23.012Z,18.00
2022-10-09T10:46:18.293Z,17.70
2022-10-09T10:49:05.700Z,17.80
2022-10-09T10:52:02.749Z,18.10
2022-10-09T10:54:55.119Z,18.20
2022-10-09T10:57:49.673Z,18.10
2022-10-09T11:00:42.087Z,18.10
2022-10-09T11:03:41.247Z,18.10
2022-10-09T11:06:35.346Z,18.30
2022-10-09T11:09:29.682Z,18.40
2022-10-09T11:12:43.273Z,18.00
2022-10-09T11:15:37.706Z,17.60
2022-10-09T11:18:36.561Z,17.50
2022-10-09T11:21:36.850Z,17.20
2022-10-09T11:24:50.630Z,17.20
2022-10-09T11:27:43.396Z,17.30
2022-10-09T11:30:34.535Z,17.60
2022-10-09T11:33:30.175Z,17.50
2022-10-09T11:36:23.711Z,17.60
2022-10-09T11:39:15.505Z,17.40
2022-10-09T11:42:02.254Z,17.60
2022-10-09T11:44:57.463Z,17.50
2022-10-09T11:47:48.746Z,17.70
2022-10-09T11:50:46.521Z,18.30
2022-10-09T11:53:36.933Z,18.40
2022-10-09T11:56:25.508Z,18.90
2022-10-09T11:59:23.315Z,18.90
2022-10-09T12:02:26.907Z,19.10
2022-10-09T12:05:19.185Z,18.90
2022-10-09T12:08:15.382Z,18.80
2022-10-09T12:11:16.244Z,18.60
2022-10-09T12:14:05.062Z,19.00
2022-10-09T12:16:51.375Z,18.90
2022-10-09T12:19:41.973Z,18.90
2022-10-09T12:22:31.423Z,19.10
2022-10-09T12:25:25.161Z,19.20
2022-10-09T12:28:21.454Z,19.10
2022-10-09T12:31:18.276Z,18.90
2022-10-09T12:34:14.045Z,18.90
2022-10-09T12:37:16.391Z,18.70
2022-10-09T12:40:11.186Z,18.80
2022-10-09T12:42:59.406Z,18.80
2022-10-09T12:45:48.787Z,18.80
2022-10-09T12:48:40.265Z,18.40
2022-10-09T12:51:29.077Z,18.60
2022-10-09T12:54:16.417Z,18.70
2022-10-09T12:57:03.710Z,18.80
2022-10-09T12:59:51.709Z,18.80
2022-10-09T13:02:40.967Z,18.70
2022-10-09T13:05:37.779Z,18.60
2022-10-09T13:08:27.780Z,18.50
2022-10-09T13:11:21.604Z,18.30
2022-10-09T13:14:08.542Z,18.40
2022-10-09T13:16:55.264Z,18.60
2022-10-09T13:19:52.386Z,18.80
2022-10-09T13:22:39.150Z,18.70
2022-10-09T13:25:26.249Z,18.60
2022-10-09T13:28:18.363Z,18.50
2022-10-09T13:31:08.650Z,18.60
2022-10-09T13:33:55.550Z,18.80
2022-10-09T13:36:43.344Z,18.60
2022-10-09T13:39:30.954Z,18.50
2022-10-09T13:42:18.102Z,18.60
2022-10-09T13:45:05.297Z,18.40
2022-10-09T13:47:52.496Z,18.40
2022-10-09T13:50:39.293Z,18.30
2022-10-09T13:53:27.482Z,18.20
2022-10-09T13:56:14.266Z,18.20
2022-10-09T13:59:00.792Z,18.30
2022-10-09T14:01:47.410Z,18.40
2022-10-09T14:04:33.690Z,18.30
2022-10-09T14:07:19.985Z,18.10
2022-10-09T14:10:08.690Z,18.10
2022-10-09T14:12:55.296Z,18.00
2022-10-09T14:15:42.391Z,18.00
2022-10-09T14:18:28.640Z,18.10
2022-10-09T14:21:16.578Z,18.20
2022-10-09T14:24:04.269Z,18.30
2022-10-09T14:26:52.024Z,18.10
2022-10-09T14:29:38.458Z,18.00
2022-10-09T14:32:25.608Z,18.00
2022-10-09T14:35:13.177Z,18.00
2022-10-09T14:38:00.019Z,18.00
2022-10-09T14:40:46.524Z,17.90
2022-10-09T14:43:34.515Z,17.80
2022-10-09T14:46:21.079Z,17.80
2022-10-09T14:49:09.114Z,17.80
2022-10-09T14:51:56.695Z,17.80
2022-10-09T14:54:43.254Z,17.80
2022-10-09T14:57:34.331Z,17.70
2022-10-09T15:00:23.511Z,17.70
2022-10-09T15:03:10.061Z,17.70
2022-10-09T15:05:58.883Z,17.60
2022-10-09T15:08:45.802Z,17.70
2022-10-09T15:11:32.526Z,17.60
2022-10-09T15:14:19.247Z,17.60
2022-10-09T15:17:07.730Z,17.60
2022-10-09T15:19:54.245Z,17.50
2022-10-09T15:22:41.009Z,17.50
2022-10-09T15:25:31.354Z,17.60
2022-10-09T15:28:18.862Z,17.50
2022-10-09T15:31:07.037Z,17.50
2022-10-09T15:33:57.341Z,17.40
2022-10-09T15:36:45.713Z,17.40
2022-10-09T15:39:34.195Z,17.30
2022-10-09T15:42:20.532Z,17.30
2022-10-09T15:45:08.085Z,17.20
2022-10-09T15:47:54.502Z,17.20
2022-10-09T15:50:45.638Z,17.20
2022-10-09T15:53:32.127Z,17.20
2022-10-09T15:56:20.751Z,17.10
2022-10-09T15:59:07.440Z,17.10
2022-10-09T16:01:53.795Z,17.10
2022-10-09T16:04:40.699Z,17.00
2022-10-09T16:07:28.683Z,16.90
2022-10-09T16:10:15.007Z,16.80
2022-10-09T16:13:01.265Z,16.70
2022-10-09T16:15:48.847Z,16.70
2022-10-09T16:18:35.897Z,16.60
2022-10-09T16:21:24.768Z,16.50
2022-10-09T16:24:12.741Z,16.50
2022-10-09T16:26:59.563Z,16.50
2022-10-09T16:29:46.196Z,16.40
2022-10-09T16:32:32.457Z,16.30
2022-10-09T16:35:18.749Z,16.30
2022-10-09T16:38:05.695Z,16.20
2022-10-09T16:41:02.155Z,16.10
2022-10-09T16:43:50.926Z,16.00
2022-10-09T16:46:37.259Z,15.80
2022-10-09T16:49:25.109Z,15.80
2022-10-09T16:52:11.674Z,15.70
2022-10-09T16:55:00.392Z,15.60
2022-10-09T16:57:48.848Z,15.50
2022-10-09T17:00:35.593Z,15.40
2022-10-09T17:03:22.507Z,15.20
2022-10-09T17:06:11.285Z,15.20
2022-10-09T17:09:00.711Z,15.10
2022-10-09T17:11:47.274Z,15.00
2022-10-09T17:14:36.428Z,15.00
2022-10-09T17:17:23.185Z,15.00
2022-10-09T17:20:10.288Z,15.00
2022-10-09T17:22:57.370Z,15.00
2022-10-09T17:25:44.102Z,14.90
2022-10-09T17:28:30.562Z,14.90
2022-10-09T17:31:20.668Z,14.80
2022-10-09T17:34:07.320Z,14.70
2022-10-09T17:36:53.949Z,14.60
2022-10-09T17:39:43.173Z,14.60
2022-10-09T17:42:30.982Z,14.40
2022-10-09T17:45:17.446Z,14.30
2022-10-09T17:48:05.767Z,14.30
2022-10-09T17:50:53.654Z,14.30
2022-10-09T17:53:40.410Z,14.10
2022-10-09T17:56:26.781Z,14.00
2022-10-09T17:59:13.790Z,14.00
2022-10-09T18:02:00.544Z,13.90
2022-10-09T18:04:48.256Z,13.70
2022-10-09T18:07:34.875Z,13.60
2022-10-09T18:10:21.432Z,13.50
2022-10-09T18:13:09.170Z,13.40
2022-10-09T18:15:55.875Z,13.30
2022-10-09T18:18:42.528Z,13.10
2022-10-09T18:21:30.985Z,13.10
2022-10-09T18:24:17.491Z,13.20
2022-10-09T18:27:04.498Z,13.30
2022-10-09T18:29:51.591Z,13.30
2022-10-09T18:32:38.132Z,13.30
2022-10-09T18:35:25.492Z,13.20
2022-10-09T18:38:13.436Z,13.10
2022-10-09T18:41:00.345Z,13.00
2022-10-09T18:43:47.135Z,12.90
2022-10-09T18:46:38.861Z,12.80
2022-10-09T18:49:28.401Z,12.70
2022-10-09T18:52:15.879Z,12.80
2022-10-09T18:55:04.396Z,12.90
2022-10-09T18:57:50.979Z,12.60
2022-10-09T19:00:38.585Z,12.40
2022-10-09T19:03:25.109Z,12.30
2022-10-09T19:06:11.628Z,12.30
2022-10-09T19:09:00.679Z,12.30
2022-10-09T19:11:48.657Z,12.20
2022-10-09T19:14:35.891Z,12.20
2022-10-09T19:17:22.484Z,12.00
2022-10-09T19:20:09.668Z,12.00
2022-10-09T19:22:56.108Z,12.00
2022-10-09T19:25:50.610Z,12.00
2022-10-09T19:28:39.218Z,12.00
2022-10-09T19:31:26.301Z,12.00
2022-10-09T19:34:13.138Z,12.10
2022-10-09T19:36:59.746Z,12.10
2022-10-09T19:39:49.061Z,12.20
2022-10-09T19:42:35.484Z,12.20
2022-10-09T19:45:23.237Z,12.20
2022-10-09T19:48:10.274Z,12.20
2022-10-09T19:50:56.780Z,12.30
2022-10-09T19:53:43.789Z,12.30
2022-10-09T19:56:34.176Z,12.40
2022-10-09T19:59:20.636Z,12.40
2022-10-09T20:02:08.790Z,12.40
2022-10-09T20:04:55.483Z,12.50
2022-10-09T20:07:41.781Z,12.50
2022-10-09T20:10:28.721Z,12.50
2022-10-09T20:13:15.132Z,12.50
2022-10-09T20:16:02.352Z,12.50
2022-10-09T20:18:50.030Z,12.50
2022-10-09T20:21:36.772Z,12.60
2022-10-09T20:24:23.484Z,12.70
2022-10-09T20:27:10.069Z,12.60
2022-10-09T20:29:56.622Z,12.60
2022-10-09T20:32:42.931Z,12.60
2022-10-09T20:35:31.065Z,12.70
2022-10-09T20:38:20.840Z,12.60
2022-10-09T20:41:11.186Z,12.70
2022-10-09T20:44:00.000Z,12.80
2022-10-09T20:46:46.403Z,12.80
2022-10-09T20:49:32.833Z,12.80
2022-10-09T20:52:20.785Z,12.80
2022-10-09T20:55:08.389Z,12.80
2022-10-09T20:57:55.184Z,12.90
2022-10-09T21:00:45.416Z,12.90
2022-10-09T21:03:31.917Z,12.80
2022-10-09T21:06:21.412Z,12.80
2022-10-09T21:09:09.724Z,12.80
2022-10-09T21:11:56.197Z,12.70
2022-10-09T21:14:42.520Z,12.60
2022-10-09T21:17:28.926Z,12.70
2022-10-09T21:20:15.549Z,12.50
2022-10-09T21:23:01.969Z,12.50
2022-10-09T21:25:51.129Z,12.50
2022-10-09T21:28:37.484Z,12.60
2022-10-09T21:31:26.176Z,12.60
2022-10-09T21:34:12.631Z,12.60
2022-10-09T21:37:20.543Z,12.50
2022-10-09T21:40:07.422Z,12.50
2022-10-09T21:42:55.100Z,12.40
2022-10-09T21:45:41.873Z,12.40
2022-10-09T21:48:28.244Z,12.40
2022-10-09T21:51:14.666Z,12.40
2022-10-09T21:54:01.243Z,12.40
2022-10-09T21:56:47.620Z,12.40
2022-10-09T21:59:35.493Z,12.40
2022-10-09T22:02:22.029Z,12.30
2022-10-09T22:05:09.611Z,12.40
2022-10-09T22:07:56.325Z,12.40
2022-10-09T22:10:43.073Z,12.50
2022-10-09T22:13:29.360Z,12.60
2022-10-09T22:16:17.232Z,12.30
2022-10-09T22:19:04.145Z,12.30
2022-10-09T22:21:51.023Z,12.30
2022-10-09T22:24:37.319Z,12.30
2022-10-09T22:27:23.636Z,12.30
2022-10-09T22:30:11.036Z,12.30
2022-10-09T22:32:58.714Z,12.40
2022-10-09T22:35:45.721Z,12.40
2022-10-09T22:38:32.472Z,12.40
2022-10-09T22:41:20.107Z,12.40
2022-10-09T22:44:08.447Z,12.20
2022-10-09T22:46:55.049Z,12.10
2022-10-09T22:49:42.704Z,12.00
2022-10-09T22:52:29.432Z,12.00
2022-10-09T22:55:15.933Z,11.90
2022-10-09T22:58:02.484Z,12.00
2022-10-09T23:00:48.784Z,11.90
2022-10-09T23:03:35.503Z,11.80
2022-10-09T23:06:23.544Z,11.80
2022-10-09T23:09:11.716Z,11.90
2022-10-09T23:11:59.333Z,11.80
2022-10-09T23:14:45.765Z,11.80
2022-10-09T23:17:32.102Z,11.70
2022-10-09T23:20:18.589Z,11.80
2022-10-09T23:23:06.322Z,11.60
2022-10-09T23:25:52.561Z,11.70
2022-10-09T23:28:39.709Z,11.70
2022-10-09T23:31:27.780Z,11.60
2022-10-09T23:34:14.348Z,11.60
2022-10-09T23:37:00.640Z,11.60
2022-10-09T23:39:48.404Z,11.50
2022-10-09T23:42:35.157Z,11.60
2022-10-09T23:45:21.552Z,11.50
2022-10-09T23:48:08.100Z,11.40
2022-10-09T23:50:55.662Z,11.40
2022-10-09T23:53:42.912Z,11.30
2022-10-09T23:56:32.592Z,11.20
2022-10-09T23:59:19.155Z,11.10
